createdAt,value
2022-08-18T00:01:24.281Z,5.35
2022-08-18T00:03:59.142Z,4.57
2022-08-18T00:06:35.503Z,6.53
2022-08-18T00:09:06.104Z,5.60
2022-08-18T00:11:41.157Z,4.90
2022-08-18T00:14:21.827Z,4.65
2022-08-18T00:16:53.042Z,5.95
2022-08-18T00:19:46.136Z,5.32
2022-08-18T00:22:15.796Z,5.00
2022-08-18T00:24:48.121Z,5.18
2022-08-18T00:27:23.376Z,4.40
2022-08-18T00:29:55.420Z,6.28
2022-08-18T00:32:34.422Z,6.38
2022-08-18T00:35:13.594Z,6.32
2022-08-18T00:37:44.641Z,4.50
2022-08-18T00:40:17.445Z,6.55
2022-08-18T00:42:55.809Z,5.85
2022-08-18T00:45:28.065Z,5.90
2022-08-18T00:47:55.898Z,5.77
2022-08-18T00:50:40.974Z,5.38
2022-08-18T00:53:29.362Z,7.15
2022-08-18T00:56:00.793Z,5.75
2022-08-18T00:58:36.341Z,5.28
2022-08-18T01:01:06.220Z,6.40
2022-08-18T01:03:36.373Z,5.30
2022-08-18T01:06:22.232Z,5.55
2022-08-18T01:08:49.473Z,5.25
2022-08-18T01:11:16.873Z,5.55
2022-08-18T01:13:44.607Z,6.00
2022-08-18T01:16:33.019Z,5.93
2022-08-18T01:19:23.138Z,5.05
2022-08-18T01:21:57.407Z,6.28
2022-08-18T01:24:49.900Z,5.00
2022-08-18T01:27:19.024Z,6.10
2022-08-18T01:29:48.450Z,5.63
2022-08-18T01:32:23.190Z,5.03
2022-08-18T01:34:54.941Z,6.07
2022-08-18T01:37:24.462Z,6.80
2022-08-18T01:41:24.960Z,7.18
2022-08-18T01:42:40.157Z,6.50
2022-08-18T01:45:10.932Z,5.80
2022-08-18T01:47:47.099Z,6.07
2022-08-18T01:50:17.330Z,6.13
2022-08-18T01:52:47.931Z,7.30
2022-08-18T01:55:15.054Z,6.90
2022-08-18T01:57:45.200Z,9.05
2022-08-18T02:00:17.770Z,6.45
2022-08-18T02:02:45.125Z,6.05
2022-08-18T02:05:18.174Z,6.55
2022-08-18T02:07:45.722Z,6.88
2022-08-18T02:10:16.361Z,7.32
2022-08-18T02:12:46.434Z,7.13
2022-08-18T02:15:13.659Z,8.05
2022-08-18T02:17:43.737Z,6.60
2022-08-18T02:20:14.101Z,6.88
2022-08-18T02:22:42.034Z,7.30
2022-08-18T02:25:10.904Z,7.60
2022-08-18T02:27:38.269Z,6.00
2022-08-18T02:30:13.116Z,8.23
2022-08-18T02:32:42.516Z,5.90
2022-08-18T02:35:11.857Z,6.13
2022-08-18T02:37:45.658Z,5.57
2022-08-18T02:40:15.329Z,5.45
2022-08-18T02:42:47.851Z,6.05
2022-08-18T02:45:15.153Z,7.43
2022-08-18T02:47:44.167Z,5.68
2022-08-18T02:50:13.361Z,5.97
2022-08-18T02:52:44.986Z,6.38
2022-08-18T02:55:12.573Z,6.53
2022-08-18T02:57:45.820Z,6.63
2022-08-18T03:02:51.361Z,7.07
2022-08-18T03:05:19.934Z,6.32
2022-08-18T03:07:47.425Z,6.75
2022-08-18T03:10:31.745Z,6.38
2022-08-18T03:13:01.928Z,5.85
2022-08-18T03:15:29.667Z,5.40
2022-08-18T03:17:58.093Z,6.70
2022-08-18T03:20:30.321Z,6.40
2022-08-18T03:22:59.749Z,7.80
2022-08-18T03:25:33.450Z,6.45
2022-08-18T03:28:03.805Z,5.70
2022-08-18T03:30:31.111Z,6.45
2022-08-18T03:32:58.309Z,6.90
2022-08-18T03:35:25.774Z,5.53
2022-08-18T03:37:59.120Z,6.47
2022-08-18T03:42:57.861Z,5.43
2022-08-18T03:45:33.876Z,4.90
2022-08-18T03:48:02.140Z,5.25
2022-08-18T03:50:29.999Z,6.75
2022-08-18T03:52:59.901Z,5.60
2022-08-18T03:55:29.224Z,5.82
2022-08-18T03:58:03.532Z,5.13
2022-08-18T04:00:33.604Z,5.72
2022-08-18T04:03:02.813Z,5.28
2022-08-18T04:05:30.023Z,5.47
2022-08-18T04:07:57.357Z,5.35
2022-08-18T04:10:25.574Z,5.72
2022-08-18T04:12:52.754Z,6.72
2022-08-18T04:15:20.029Z,5.43
2022-08-18T04:18:03.299Z,5.97
2022-08-18T04:20:33.191Z,4.65
2022-08-18T04:23:03.239Z,5.55
2022-08-18T04:25:33.147Z,4.97
2022-08-18T04:28:03.309Z,6.07
2022-08-18T04:30:33.205Z,5.50
2022-08-18T04:33:01.490Z,6.82
2022-08-18T04:35:31.228Z,5.97
2022-08-18T04:37:58.868Z,6.28
2022-08-18T04:40:27.122Z,6.40
2022-08-18T04:42:54.754Z,6.63
2022-08-18T04:45:24.396Z,7.75
2022-08-18T04:47:55.828Z,4.88
2022-08-18T04:50:24.669Z,5.75
2022-08-18T04:53:16.298Z,6.13
2022-08-18T04:55:54.206Z,6.97
2022-08-18T04:58:23.955Z,6.65
2022-08-18T05:01:01.968Z,5.72
2022-08-18T05:03:29.259Z,6.88
2022-08-18T05:05:59.754Z,5.78
2022-08-18T05:08:26.906Z,6.70
2022-08-18T05:11:03.187Z,6.78
2022-08-18T05:13:33.974Z,5.90
2022-08-18T05:16:11.614Z,6.82
2022-08-18T05:18:44.358Z,7.28
2022-08-18T05:21:13.948Z,6.75
2022-08-18T05:23:45.443Z,5.28
2022-08-18T05:26:16.697Z,6.38
2022-08-18T05:28:45.463Z,5.43
2022-08-18T05:31:25.470Z,6.35
2022-08-18T05:33:56.385Z,6.00
2022-08-18T05:36:46.573Z,5.90
2022-08-18T05:40:00.388Z,5.97
2022-08-18T05:42:39.783Z,6.80
2022-08-18T05:45:15.426Z,7.35
2022-08-18T05:47:42.930Z,6.57
2022-08-18T05:50:20.771Z,8.02
2022-08-18T05:53:14.094Z,6.75
2022-08-18T05:56:23.289Z,5.85
2022-08-18T05:58:55.350Z,6.28
2022-08-18T06:01:33.129Z,5.90
2022-08-18T06:04:12.015Z,6.38
2022-08-18T06:06:45.481Z,5.63
2022-08-18T06:09:55.116Z,6.78
2022-08-18T06:12:37.782Z,6.15
2022-08-18T06:15:42.404Z,6.38
2022-08-18T06:18:33.667Z,7.40
2022-08-18T06:21:16.305Z,5.93
2022-08-18T06:24:08.485Z,6.23
2022-08-18T06:27:16.084Z,5.95
2022-08-18T06:29:53.301Z,7.75
2022-08-18T06:32:41.823Z,6.50
2022-08-18T06:35:44.777Z,7.30
2022-08-18T06:38:40.695Z,7.22
2022-08-18T06:41:40.720Z,6.40
2022-08-18T06:44:16.332Z,8.07
2022-08-18T06:47:26.196Z,9.68
2022-08-18T06:50:20.098Z,7.22
2022-08-18T06:52:59.811Z,5.55
2022-08-18T06:55:48.634Z,7.10
2022-08-18T06:58:17.655Z,6.43
2022-08-18T07:00:51.144Z,6.07
2022-08-18T07:03:39.370Z,6.70
2022-08-18T07:06:22.071Z,8.15
2022-08-18T07:08:51.702Z,6.93
2022-08-18T07:11:29.509Z,6.20
2022-08-18T07:14:16.912Z,6.43
2022-08-18T07:16:58.332Z,6.10
2022-08-18T07:19:31.051Z,10.90
2022-08-18T07:22:08.625Z,6.90
2022-08-18T07:24:43.350Z,6.55
2022-08-18T07:27:20.023Z,6.45
2022-08-18T07:30:05.875Z,5.75
2022-08-18T07:32:45.968Z,7.80
2022-08-18T07:35:20.824Z,5.57
2022-08-18T07:38:38.622Z,6.53
2022-08-18T07:41:04.919Z,5.93
2022-08-18T07:43:45.520Z,6.10
2022-08-18T07:46:19.300Z,6.57
2022-08-18T07:48:52.255Z,6.55
2022-08-18T07:51:26.981Z,6.13
2022-08-18T07:54:25.390Z,6.78
2022-08-18T07:57:06.486Z,5.63
2022-08-18T08:00:05.914Z,5.90
2022-08-18T08:02:44.594Z,5.95
2022-08-18T08:05:42.933Z,8.82
2022-08-18T08:08:38.769Z,6.03
2022-08-18T08:11:12.100Z,5.57
2022-08-18T08:16:37.960Z,6.13
2022-08-18T08:19:15.332Z,6.00
2022-08-18T08:22:06.999Z,5.78
2022-08-18T08:27:51.519Z,8.75
2022-08-18T08:30:26.194Z,7.22
2022-08-18T08:33:26.671Z,7.40
2022-08-18T08:36:35.055Z,6.15
2022-08-18T08:39:06.581Z,6.50
2022-08-18T08:41:44.527Z,5.78
2022-08-18T08:44:24.446Z,7.05
2022-08-18T08:47:25.743Z,6.90
2022-08-18T08:50:08.956Z,6.68
2022-08-18T08:53:11.775Z,6.85
2022-08-18T08:55:47.259Z,7.45
2022-08-18T08:58:43.067Z,6.60
2022-08-18T09:01:22.889Z,7.97
2022-08-18T09:04:01.721Z,6.72
2022-08-18T09:07:02.587Z,7.32
2022-08-18T09:09:29.740Z,6.45
2022-08-18T09:12:07.702Z,7.22
2022-08-18T09:14:54.288Z,6.60
2022-08-18T09:17:45.913Z,6.65
2022-08-18T09:20:49.491Z,6.97
2022-08-18T09:23:32.482Z,6.22
2022-08-18T09:26:24.320Z,7.43
2022-08-18T09:29:15.604Z,9.82
2022-08-18T09:31:46.032Z,5.25
2022-08-18T09:34:39.069Z,7.88
2022-08-18T09:37:24.487Z,11.70
2022-08-18T09:40:59.426Z,8.07
2022-08-18T09:43:39.902Z,8.88
2022-08-18T09:46:15.235Z,5.60
2022-08-18T09:48:47.025Z,6.55
2022-08-18T09:51:35.309Z,6.07
2022-08-18T09:54:13.458Z,7.97
2022-08-18T09:56:54.431Z,8.82
2022-08-18T09:59:35.008Z,6.43
2022-08-18T10:02:22.609Z,5.93
2022-08-18T10:05:17.185Z,6.03
2022-08-18T10:08:21.357Z,5.53
2022-08-18T10:11:29.333Z,6.28
2022-08-18T10:14:07.859Z,6.55
2022-08-18T10:17:21.505Z,7.25
2022-08-18T10:20:09.565Z,7.68
2022-08-18T10:22:56.527Z,9.90
2022-08-18T10:25:52.763Z,8.80
2022-08-18T10:28:59.223Z,6.65
2022-08-18T10:31:49.347Z,5.53
2022-08-18T10:34:38.727Z,6.15
2022-08-18T10:37:26.333Z,7.47
2022-08-18T10:40:04.449Z,6.75
2022-08-18T10:42:53.307Z,10.07
2022-08-18T10:45:28.709Z,7.38
2022-08-18T10:48:17.344Z,5.82
2022-08-18T10:50:55.789Z,7.13
2022-08-18T10:53:44.359Z,5.80
2022-08-18T10:56:28.704Z,6.32
2022-08-18T10:58:55.821Z,7.03
2022-08-18T11:01:32.934Z,5.93
2022-08-18T11:04:14.315Z,8.90
2022-08-18T11:07:19.113Z,7.68
2022-08-18T11:10:04.398Z,7.47
2022-08-18T11:13:00.197Z,6.35
2022-08-18T11:15:53.525Z,6.07
2022-08-18T11:18:36.395Z,6.68
2022-08-18T11:21:32.784Z,6.90
2022-08-18T11:24:07.725Z,7.07
2022-08-18T11:26:52.823Z,7.80
2022-08-18T11:31:55.406Z,6.53
2022-08-18T11:34:51.991Z,7.47
2022-08-18T11:37:49.165Z,9.60
2022-08-18T11:43:13.215Z,7.90
2022-08-18T11:45:48.134Z,7.90
2022-08-18T11:48:15.297Z,8.20
2022-08-18T11:51:01.842Z,9.30
2022-08-18T11:53:46.938Z,7.38
2022-08-18T11:56:21.062Z,7.63
2022-08-18T11:59:03.179Z,8.63
2022-08-18T12:01:41.550Z,12.38
2022-08-18T12:04:20.880Z,8.05
2022-08-18T12:06:55.440Z,8.52
2022-08-18T12:12:22.335Z,7.88
2022-08-18T12:17:32.766Z,8.70
2022-08-18T12:20:02.280Z,9.07
2022-08-18T12:22:31.600Z,7.70
2022-08-18T12:24:59.155Z,7.78
2022-08-18T12:27:32.095Z,7.07
2022-08-18T12:30:01.870Z,9.80
2022-08-18T12:32:47.122Z,6.82
2022-08-18T12:35:21.973Z,7.85
2022-08-18T12:38:13.179Z,9.38
2022-08-18T12:40:40.785Z,6.43
2022-08-18T12:43:08.065Z,7.03
2022-08-18T12:45:37.490Z,6.63
2022-08-18T12:48:46.261Z,9.35
2022-08-18T12:50:58.285Z,7.80
2022-08-18T12:53:29.148Z,6.55
2022-08-18T12:56:10.483Z,6.10
2022-08-18T12:58:41.467Z,5.70
2022-08-18T13:01:08.792Z,14.73
2022-08-18T13:03:42.613Z,8.77
2022-08-18T13:06:11.573Z,7.85
2022-08-18T13:08:48.050Z,11.48
2022-08-18T13:11:24.867Z,6.63
2022-08-18T13:13:57.166Z,6.38
2022-08-18T13:16:30.502Z,8.68
2022-08-18T13:19:08.921Z,9.02
2022-08-18T13:21:41.437Z,7.32
2022-08-18T13:24:12.683Z,10.88
2022-08-18T13:26:45.813Z,8.68
2022-08-18T13:29:17.868Z,10.77
2022-08-18T13:31:55.823Z,6.95
2022-08-18T13:34:29.915Z,6.78
2022-08-18T13:36:59.990Z,9.55
2022-08-18T13:39:34.436Z,8.57
2022-08-18T13:42:21.627Z,6.93
2022-08-18T13:44:55.056Z,7.13
2022-08-18T13:47:29.195Z,8.43
2022-08-18T13:49:58.671Z,6.40
2022-08-18T13:52:36.176Z,8.18
2022-08-18T13:55:11.679Z,7.75
2022-08-18T13:57:49.624Z,7.90
2022-08-18T14:00:30.369Z,6.38
2022-08-18T14:03:02.165Z,6.38
2022-08-18T14:05:36.374Z,5.53
2022-08-18T14:08:21.558Z,7.53
2022-08-18T14:10:53.056Z,8.05
2022-08-18T14:13:25.048Z,7.05
2022-08-18T14:18:29.153Z,6.18
2022-08-18T14:21:37.257Z,7.70
2022-08-18T14:24:24.890Z,8.20
2022-08-18T14:26:52.503Z,6.55
2022-08-18T14:29:46.337Z,7.00
2022-08-18T14:32:07.614Z,6.28
2022-08-18T14:34:35.637Z,6.47
2022-08-18T14:37:09.934Z,5.70
2022-08-18T14:39:39.351Z,6.45
2022-08-18T14:42:14.309Z,6.22
2022-08-18T14:47:13.412Z,8.45
2022-08-18T14:49:51.357Z,6.68
2022-08-18T14:52:18.729Z,7.30
2022-08-18T14:54:51.219Z,8.40
2022-08-18T14:57:18.542Z,5.60
2022-08-18T14:59:49.505Z,5.53
2022-08-18T15:02:16.772Z,6.38
2022-08-18T15:04:53.174Z,6.15
2022-08-18T15:07:26.498Z,6.70
2022-08-18T15:10:14.962Z,6.22
2022-08-18T15:12:44.624Z,6.07
2022-08-18T15:15:17.968Z,7.55
2022-08-18T15:17:49.572Z,5.72
2022-08-18T15:20:28.625Z,6.15
2022-08-18T15:23:22.862Z,6.53
2022-08-18T15:25:56.481Z,6.80
2022-08-18T15:28:26.530Z,11.98
2022-08-18T15:33:42.083Z,7.53
2022-08-18T15:36:10.318Z,9.00
2022-08-18T15:38:43.340Z,10.32
2022-08-18T15:41:28.875Z,7.80
2022-08-18T15:43:58.769Z,7.97
2022-08-18T15:46:25.896Z,6.53
2022-08-18T15:48:55.695Z,7.03
2022-08-18T15:51:23.107Z,7.93
2022-08-18T15:53:56.399Z,6.03
2022-08-18T15:56:25.978Z,5.75
2022-08-18T15:58:53.915Z,7.97
2022-08-18T16:01:30.254Z,5.38
2022-08-18T16:04:01.196Z,7.65
2022-08-18T16:06:32.511Z,7.10
2022-08-18T16:09:03.637Z,7.60
2022-08-18T16:11:31.068Z,6.18
2022-08-18T16:13:59.121Z,8.90
2022-08-18T16:16:36.324Z,6.57
2022-08-18T16:19:07.622Z,7.63
2022-08-18T16:21:39.561Z,6.35
2022-08-18T16:24:09.563Z,8.30
2022-08-18T16:26:36.931Z,7.13
2022-08-18T16:29:07.211Z,5.97
2022-08-18T16:31:41.514Z,8.15
2022-08-18T16:34:13.605Z,6.05
2022-08-18T16:36:44.215Z,8.38
2022-08-18T16:39:13.430Z,6.97
2022-08-18T16:41:47.082Z,6.78
2022-08-18T16:44:20.560Z,6.45
2022-08-18T16:47:01.230Z,7.60
2022-08-18T16:49:39.490Z,6.15
2022-08-18T16:52:10.106Z,6.68
2022-08-18T16:54:38.260Z,7.15
2022-08-18T16:57:07.071Z,6.50
2022-08-18T16:59:53.112Z,6.15
2022-08-18T17:02:55.896Z,6.80
2022-08-18T17:05:24.331Z,6.05
2022-08-18T17:07:54.229Z,6.00
2022-08-18T17:10:23.075Z,6.72
2022-08-18T17:12:54.275Z,6.57
2022-08-18T17:15:22.084Z,7.07
2022-08-18T17:17:52.685Z,7.45
2022-08-18T17:20:39.649Z,6.00
2022-08-18T17:23:38.831Z,6.60
2022-08-18T17:26:21.447Z,6.70
2022-08-18T17:28:53.865Z,6.80
2022-08-18T17:31:24.565Z,6.72
2022-08-18T17:33:57.263Z,6.72
2022-08-18T17:36:37.281Z,7.15
2022-08-18T17:39:23.500Z,6.68
2022-08-18T17:42:11.762Z,6.50
2022-08-18T17:44:52.393Z,7.88
2022-08-18T17:47:53.178Z,6.20
2022-08-18T17:50:53.063Z,7.05
2022-08-18T17:53:22.727Z,6.65
2022-08-18T17:56:18.003Z,7.18
2022-08-18T17:59:45.603Z,6.53
2022-08-18T18:02:31.858Z,7.57
2022-08-18T18:05:18.699Z,8.00
2022-08-18T18:07:52.253Z,6.35
2022-08-18T18:13:38.033Z,7.23
2022-08-18T18:16:34.998Z,8.63
2022-08-18T18:19:13.230Z,8.40
2022-08-18T18:21:56.573Z,8.38
2022-08-18T18:24:38.997Z,7.75
2022-08-18T18:27:39.891Z,8.35
2022-08-18T18:30:27.693Z,8.77
2022-08-18T18:33:04.464Z,8.82
2022-08-18T18:35:53.296Z,8.10
2022-08-18T18:38:48.898Z,7.90
2022-08-18T18:41:27.370Z,8.10
2022-08-18T18:44:07.021Z,10.00
2022-08-18T18:46:39.089Z,8.57
2022-08-18T18:49:24.551Z,9.90
2022-08-18T18:51:57.837Z,9.27
2022-08-18T18:54:34.155Z,8.68
2022-08-18T18:57:04.471Z,8.70
2022-08-18T18:59:40.804Z,9.05
2022-08-18T19:02:33.726Z,8.52
2022-08-18T19:05:18.522Z,8.90
2022-08-18T19:08:03.824Z,10.32
2022-08-18T19:10:45.426Z,8.45
2022-08-18T19:13:32.996Z,9.80
2022-08-18T19:16:23.188Z,9.95
2022-08-18T19:19:36.967Z,10.05
2022-08-18T19:22:03.890Z,11.57
2022-08-18T19:27:24.486Z,9.95
2022-08-18T19:29:56.570Z,10.75
2022-08-18T19:32:44.635Z,9.13
2022-08-18T19:35:19.561Z,9.68
2022-08-18T19:38:19.089Z,10.35
2022-08-18T19:41:05.670Z,14.00
2022-08-18T19:43:42.880Z,10.65
2022-08-18T19:46:27.057Z,12.48
2022-08-18T19:49:38.171Z,10.63
2022-08-18T19:52:45.628Z,10.55
2022-08-18T19:55:39.454Z,10.15
2022-08-18T19:58:29.406Z,11.10
2022-08-18T20:01:20.852Z,9.45
2022-08-18T20:04:13.684Z,10.52
2022-08-18T20:07:20.574Z,10.85
2022-08-18T20:10:09.215Z,12.20
2022-08-18T20:12:56.343Z,10.75
2022-08-18T20:15:30.440Z,10.02
2022-08-18T20:17:57.603Z,9.98
2022-08-18T20:20:37.903Z,11.05
2022-08-18T20:23:37.594Z,10.25
2022-08-18T20:26:05.526Z,9.93
2022-08-18T20:28:39.108Z,10.27
2022-08-18T20:31:12.880Z,11.63
2022-08-18T20:34:13.423Z,9.00
2022-08-18T20:36:43.930Z,9.50
2022-08-18T20:39:39.509Z,9.95
2022-08-18T20:42:23.065Z,9.43
2022-08-18T20:44:57.598Z,10.43
2022-08-18T20:47:37.210Z,10.45
2022-08-18T20:50:13.245Z,8.60
2022-08-18T20:52:46.122Z,9.63
2022-08-18T20:56:12.928Z,10.85
2022-08-18T20:59:13.299Z,9.32
2022-08-18T21:01:42.662Z,9.13
2022-08-18T21:04:09.935Z,8.98
2022-08-18T21:06:44.541Z,8.57
2022-08-18T21:09:18.447Z,11.00
2022-08-18T21:11:47.824Z,8.90
2022-08-18T21:14:29.749Z,8.25
2022-08-18T21:16:58.793Z,8.88
2022-08-18T21:19:29.619Z,8.73
2022-08-18T21:22:01.322Z,8.52
2022-08-18T21:24:38.786Z,8.60
2022-08-18T21:27:21.237Z,8.93
2022-08-18T21:29:52.020Z,8.68
2022-08-18T21:32:31.286Z,8.70
2022-08-18T21:35:11.005Z,8.10
2022-08-18T21:37:40.812Z,7.70
2022-08-18T21:40:08.773Z,8.60
2022-08-18T21:42:40.485Z,9.50
2022-08-18T21:45:17.260Z,10.18
2022-08-18T21:47:56.592Z,8.18
2022-08-18T21:50:33.069Z,8.50
2022-08-18T21:53:15.968Z,11.40
2022-08-18T21:55:46.842Z,9.05
2022-08-18T21:58:15.623Z,8.45
2022-08-18T22:01:05.986Z,8.13
2022-08-18T22:03:47.928Z,8.52
2022-08-18T22:06:17.990Z,9.80
2022-08-18T22:08:54.529Z,8.95
2022-08-18T22:12:00.384Z,9.32
2022-08-18T22:14:36.173Z,10.77
2022-08-18T22:17:43.251Z,9.52
2022-08-18T22:20:32.659Z,8.75
2022-08-18T22:23:25.196Z,9.57
2022-08-18T22:25:55.868Z,8.88
2022-08-18T22:28:24.221Z,9.93
2022-08-18T22:30:54.853Z,9.10
2022-08-18T22:33:24.945Z,9.30
2022-08-18T22:35:56.395Z,9.38
2022-08-18T22:38:27.669Z,9.35
2022-08-18T22:40:55.199Z,10.23
2022-08-18T22:43:25.838Z,9.35
2022-08-18T22:45:57.944Z,9.98
2022-08-18T22:48:25.537Z,11.55
2022-08-18T22:50:52.986Z,9.68
2022-08-18T22:53:23.477Z,9.70
2022-08-18T22:55:51.861Z,9.75
2022-08-18T22:58:21.643Z,9.38
2022-08-18T23:01:01.210Z,10.30
2022-08-18T23:03:34.418Z,10.55
2022-08-18T23:06:10.051Z,9.98
2022-08-18T23:08:54.903Z,10.85
2022-08-18T23:11:24.764Z,10.13
2022-08-18T23:13:52.084Z,9.70
2022-08-18T23:16:30.921Z,10.65
2022-08-18T23:19:03.491Z,10.52
2022-08-18T23:21:35.157Z,11.10
2022-08-18T23:24:05.360Z,9.57
2022-08-18T23:26:35.049Z,10.25
2022-08-18T23:29:06.470Z,9.73
2022-08-18T23:31:33.848Z,10.93
2022-08-18T23:34:01.384Z,9.60
2022-08-18T23:36:33.326Z,10.50
2022-08-18T23:39:03.224Z,10.52
2022-08-18T23:41:30.517Z,9.98
2022-08-18T23:43:59.807Z,11.43
2022-08-18T23:46:30.441Z,10.25
2022-08-18T23:49:02.883Z,11.27
2022-08-18T23:51:39.474Z,10.77
2022-08-18T23:54:09.792Z,11.25
2022-08-18T23:56:37.800Z,12.23
2022-08-18T23:59:08.760Z,10.25
